Dundee, United Kingdom

12:54 AM GMT on December 28, 2014 (GMT +0000)
West End | Change Station
CLOSE
Current Station
Personal Weather Station
Location: Dundee,
Elevation: 187 ft
Nearby Weather Stations

Elev 187 ft 56.46 °N, 3.02 °W | Updated 8 seconds ago

Mostly Cloudy
Mostly Cloudy
31.0 °F
Feels Like 31 °F
N
0.0
Wind Variable Wind from West
Gusts 2.0 mph

Today
High -- | Low -- °F
--% Chance of Precip.
Yesterday
High -- | Low -- °F
Precip. -- in
8:46 AM 3:40 PM
Waxing Crescent, 42% visible
Pressure 30.24 in
Visibility 6.2 miles
Clouds Mostly Cloudy 3500 ft
Windchill 31 °F
Dew Point -10 °F
Humidity 16%
Rainfall 0.00 in
Snow Depth Not available.
UV 0.0 out of 12
Pollen Not available.
Air Quality Not available.
Flu Activity Not available.
METAR EGPH 280050Z 27003KT 9999 BKN035 00/M01 Q1024

More Conditions Fewer Conditions

Pressure 30.24 in
Visibility 6.2 miles
Clouds Mostly Cloudy 3500 ft
Windchill 31 °F
Dew Point -10 °F
Humidity 16%
Rainfall 0.00 in
Snow Depth Not available.
UV 0.0 out of 12
Pollen Not available.
Air Quality Not available.
Flu Activity Not available.
METAR EGPH 280050Z 27003KT 9999 BKN035 00/M01 Q1024

More Conditions Fewer Conditions

10-Day Weather Forecast

Almanac

Astronomy

Dec. 28, 2014 Rise Set
Actual Time
Civil Twilight
Nautical Twilight
Astronomical Twilight
Moon
Length of Visible Light
Length of Day
Tomorrow will be .
, % of the Moon is Illuminated

Today's Extremes

Country Highs Country Lows

Community

WunderPhotos

Upload Photos

1,781,117 photos uploaded!

WunderBlogs® & News

Nearby

Air Quality

  Air Quality AQ Index Pollutant
Not available.

Snow Depth

Station Depth Elevation

Earthquake Activity

City Distance Mag. Time & Date
Minimum magnitude displayed is 2.5.

Coastal Water Temperatures

Place Temperature

Nearby Weather Stations